Oatman, AZ (86433)

7:30 PM MST on October 22, 2014 (GMT -0700)
RAWS UNION PASS AZ US | Change Station
CLOSE
Current Station
Personal Weather Station
Location: Golden Valley, AZ
Elevation: 3589 ft
Nearby Weather Stations

Elev 3589 ft 35.23 °N, 114.38 °W | Updated 38 minutes ago

Clear
Clear
72 °F
Feels Like 75 °F
N
5
Wind Variable Wind from WNW
Gusts 7.0 mph

Today
High -- | Low -- °F
--% Chance of Precip.
Yesterday
High -- | Low -- °F
Precip. -- in
6:49 AM 5:53 PM
Waning Crescent, 1% visible
Pressure 29.85 in
Visibility 10.0 miles
Clouds Clear
Heat Index 75 °F
Dew Point 31 °F
Humidity 22%
Rainfall 0.00 in
Snow Depth Not available.
UV 0 out of 12
Pollen 4.50 out of 12
Air Quality Not available.
Flu Activity No Activity
METAR KEED 230156Z AUTO 26003KT 10SM CLR 28/06 A2992 RMK AO2 SLP107 T02830056

More Conditions Fewer Conditions

Pressure 29.85 in
Visibility 10.0 miles
Clouds Clear
Heat Index 75 °F
Dew Point 31 °F
Humidity 22%
Rainfall 0.00 in
Snow Depth Not available.
UV 0 out of 12
Pollen 4.50 out of 12
Air Quality Not available.
Flu Activity No Activity
METAR KEED 230156Z AUTO 26003KT 10SM CLR 28/06 A2992 RMK AO2 SLP107 T02830056

More Conditions Fewer Conditions

10-Day Weather Forecast

Almanac

Astronomy

Oct. 22, 2014 Rise Set
Actual Time 6:49 AM MST 5:53 PM MST
Civil Twilight 6:23 AM MST 6:19 PM MST
Nautical Twilight 5:54 AM MST 6:49 PM MST
Astronomical Twilight 5:24 AM MST 7:18 PM MST
Moon 5:37 AM MST (10/22) 5:21 PM MST (10/22)
Length of Visible Light 11h 55m
Length of Day
11h 04m
Tomorrow will be 2m 3s shorter.
Waning Crescent, 1% of the Moon is Illuminated
Today
Waning Crescent
Oct 23
New
Oct 30
First Quarter
Nov 6
Full
Nov 14
Last Quarter

Today's Extremes

State Highs State Lows

Community

WunderPhotos

Upload Photos

1,764,109 photos uploaded!

Nearby

Snow Depth

Station Depth Elevation
White Horse Lake 0 in 7180 ft
Snowslide Canyon 0 in 9730 ft
Baker Butte 0 in 7300 ft
Promontory 0 in 7930 ft
Workman Creek 0 in 6900 ft

Earthquake Activity

City Distance Mag. Time & Date
No recent earthquake activity has been reported nearby.
Minimum magnitude displayed is 2.5.

Coastal Water Temperatures

Place Temperature
No Stations Reporting

Nearby Weather Stations